Time;durP1;ratioP1;P1;durP2;ratioP2;P2;SDS_P1;SDS_P2;PMS_P1;PMS_P2;Temp;Humidity;BMP_temperature;BMP_pressure;BME280_temperature;BME280_humidity;BME280_pressure;Samples;Min_cycle;Max_cycle;Signal;HPM_P1;HPM_P2
2022/09/25 00:00:56;;;;;;;14.20;9.07;;;;;;;5.14;100.00;95302.94;5082376;28;20048;-68
2022/09/25 00:03:26;;;;;;;18.42;8.80;;;;;;;5.32;100.00;95340.47;5099366;28;20047;-68
2022/09/25 00:06:03;;;;;;;16.38;8.82;;;;;;;5.26;100.00;95334.25;5099931;28;20856;-67
2022/09/25 00:08:31;;;;;;;13.35;8.43;;;;;;;5.22;100.00;95324.47;5099267;28;20124;-68
2022/09/25 00:10:58;;;;;;;15.77;8.73;;;;;;;5.15;100.00;95330.38;5082169;28;20039;-68
2022/09/25 00:13:26;;;;;;;16.88;8.63;;;;;;;5.15;100.00;95325.22;5099490;28;20081;-68
2022/09/25 00:15:56;;;;;;;12.35;8.10;;;;;;;5.17;100.00;95325.84;5081473;28;20130;-68
2022/09/25 00:21:13;;;;;;;13.95;7.85;;;;;;;5.14;100.00;95339.09;5101584;27;20097;-68
2022/09/25 00:23:43;;;;;;;14.00;8.13;;;;;;;5.06;100.00;95330.66;5103896;27;20198;-67
2022/09/25 00:26:12;;;;;;;13.68;8.63;;;;;;;5.05;100.00;95335.03;5101792;28;20043;-68
2022/09/25 00:28:40;;;;;;;15.70;7.95;;;;;;;5.03;100.00;95325.91;5103745;28;20065;-68
2022/09/25 00:31:09;;;;;;;13.15;8.10;;;;;;;4.97;100.00;95332.59;5103303;27;20561;-68
2022/09/25 00:33:36;;;;;;;14.05;8.57;;;;;;;4.91;100.00;95333.31;5105351;27;20047;-68
2022/09/25 00:36:06;;;;;;;12.98;8.30;;;;;;;4.83;100.00;95320.53;5106429;27;20048;-68
2022/09/25 00:38:34;;;;;;;14.10;8.85;;;;;;;4.84;100.00;95324.69;5103750;28;20047;-69
2022/09/25 00:41:03;;;;;;;12.07;7.95;;;;;;;4.78;100.00;95308.97;5106042;27;20106;-68
2022/09/25 00:43:44;;;;;;;16.80;8.68;;;;;;;4.84;100.00;95316.97;5105886;27;20480;-68
2022/09/25 00:46:23;;;;;;;12.95;8.10;;;;;;;4.79;100.00;95305.41;5103395;27;20493;-68
2022/09/25 00:48:55;;;;;;;12.20;7.45;;;;;;;4.69;100.00;95302.31;5102203;27;20048;-69
2022/09/25 00:51:28;;;;;;;11.95;7.60;;;;;;;4.64;100.00;95296.09;5104281;27;20031;-68
2022/09/25 00:54:03;;;;;;;16.52;8.93;;;;;;;4.65;100.00;95301.09;5103521;28;20036;-68
2022/09/25 00:56:36;;;;;;;13.50;7.95;;;;;;;4.66;100.00;95300.09;5108097;27;20394;-68
2022/09/25 00:59:04;;;;;;;11.77;7.85;;;;;;;4.66;100.00;95304.47;5103426;28;20050;-67
2022/09/25 01:01:31;;;;;;;13.13;7.88;;;;;;;4.69;100.00;95307.47;5111271;27;20036;-68
2022/09/25 01:03:58;;;;;;;13.10;7.95;;;;;;;4.72;100.00;95306.31;5110598;27;20047;-68
2022/09/25 01:06:26;;;;;;;14.32;8.15;;;;;;;4.64;100.00;95312.38;5115320;27;20457;-67
2022/09/25 01:08:55;;;;;;;13.15;7.63;;;;;;;4.65;100.00;95306.25;5113440;28;20039;-67
2022/09/25 01:11:22;;;;;;;11.73;8.05;;;;;;;4.70;100.00;95306.50;5106931;27;20032;-67
2022/09/25 01:13:53;;;;;;;15.15;9.65;;;;;;;4.74;100.00;95305.16;5102487;27;20070;-68
2022/09/25 01:16:49;;;;;;;14.52;8.70;;;;;;;4.73;100.00;95308.69;5104363;27;20125;-68
2022/09/25 01:19:54;;;;;;;12.75;7.93;;;;;;;4.67;100.00;95312.03;5103149;28;20047;-67
2022/09/25 01:22:40;;;;;;;14.88;8.25;;;;;;;4.66;100.00;95310.41;5103034;28;20051;-67
2022/09/25 01:25:25;;;;;;;13.77;8.30;;;;;;;4.56;100.00;95309.91;5102377;28;20512;-68
2022/09/25 01:28:25;;;;;;;14.30;9.45;;;;;;;4.47;100.00;95311.81;5109308;27;20044;-68
2022/09/25 01:31:00;;;;;;;14.48;7.88;;;;;;;4.36;100.00;95300.16;5100283;28;20369;-69
2022/09/25 01:33:35;;;;;;;14.30;8.32;;;;;;;4.38;100.00;95307.72;5102189;27;20118;-69
2022/09/25 01:36:18;;;;;;;16.33;7.82;;;;;;;4.33;100.00;95305.69;5101984;28;20146;-70
2022/09/25 01:38:54;;;;;;;15.43;7.82;;;;;;;4.26;100.00;95301.44;5081995;28;20101;-69
2022/09/25 01:41:23;;;;;;;14.85;8.38;;;;;;;4.10;100.00;95297.25;5102559;27;20573;-70
2022/09/25 01:44:05;;;;;;;14.05;7.00;;;;;;;4.06;100.00;95298.59;5102446;28;20050;-69
2022/09/25 01:46:45;;;;;;;11.10;6.90;;;;;;;4.10;100.00;95298.03;5100429;28;20136;-69
2022/09/25 01:49:27;;;;;;;13.90;7.90;;;;;;;4.05;100.00;95302.13;5102345;28;20044;-69
2022/09/25 01:51:55;;;;;;;12.32;7.15;;;;;;;4.01;100.00;95299.13;5096275;28;20047;-69
2022/09/25 01:54:43;;;;;;;11.02;7.55;;;;;;;4.08;100.00;95306.94;5100093;28;20413;-68
2022/09/25 01:57:17;;;;;;;10.90;6.68;;;;;;;3.88;100.00;95286.84;5099563;28;20043;-68
2022/09/25 02:00:08;;;;;;;11.02;7.03;;;;;;;3.94;100.00;95311.94;5096885;27;20100;-68
2022/09/25 02:02:48;;;;;;;10.68;7.15;;;;;;;3.93;100.00;95310.31;5101332;27;20067;-68
2022/09/25 02:05:25;;;;;;;8.93;6.68;;;;;;;3.90;100.00;95302.94;5082896;28;20869;-68
2022/09/25 02:08:10;;;;;;;11.38;7.15;;;;;;;3.96;100.00;95309.16;5101592;27;20104;-68
2022/09/25 02:10:43;;;;;;;14.55;7.18;;;;;;;3.97;100.00;95309.00;5100979;28;20031;-68
2022/09/25 02:13:14;;;;;;;12.27;7.47;;;;;;;4.04;100.00;95308.28;5101707;27;20143;-68
2022/09/25 02:15:54;;;;;;;10.50;6.50;;;;;;;4.00;100.00;95300.91;5113825;27;20054;-68
2022/09/25 02:21:16;;;;;;;11.80;7.05;;;;;;;3.92;100.00;95282.94;5101176;28;20055;-68
2022/09/25 02:24:04;;;;;;;11.40;7.60;;;;;;;4.00;100.00;95285.44;5101226;28;20041;-68
2022/09/25 02:26:33;;;;;;;12.30;7.78;;;;;;;3.98;100.00;95282.25;5100611;28;20054;-69
2022/09/25 02:29:01;;;;;;;13.00;8.75;;;;;;;3.95;100.00;95287.75;5101601;28;20040;-68
2022/09/25 02:31:34;;;;;;;13.73;9.02;;;;;;;3.87;100.00;95287.03;5082649;28;20575;-68
2022/09/25 02:34:05;;;;;;;14.52;9.05;;;;;;;3.87;100.00;95295.59;5103899;27;20048;-68
2022/09/25 02:36:41;;;;;;;12.55;7.95;;;;;;;3.86;100.00;95304.28;5100032;28;20058;-68
2022/09/25 02:39:10;;;;;;;12.40;8.70;;;;;;;3.86;100.00;95299.13;5101330;27;20073;-68
2022/09/25 02:41:40;;;;;;;17.20;8.82;;;;;;;3.96;100.00;95307.41;5098725;28;20115;-68
2022/09/25 02:44:25;;;;;;;12.45;8.77;;;;;;;3.91;100.00;95307.13;5101001;28;20425;-68
2022/09/25 02:46:55;;;;;;;13.90;8.60;;;;;;;3.87;100.00;95300.75;5099804;27;20596;-68
2022/09/25 02:49:45;;;;;;;14.82;8.63;;;;;;;3.75;100.00;95297.00;5103323;27;20046;-68
2022/09/25 02:52:34;;;;;;;15.10;8.90;;;;;;;3.80;100.00;95310.16;5100047;28;20039;-68
2022/09/25 02:55:08;;;;;;;11.98;7.97;;;;;;;3.81;100.00;95301.44;5102154;27;20071;-68
2022/09/25 02:57:48;;;;;;;12.38;8.00;;;;;;;3.80;100.00;95305.00;5103188;27;20522;-67
2022/09/25 03:00:15;;;;;;;16.83;8.55;;;;;;;3.77;100.00;95310.50;5101329;27;20058;-68
2022/09/25 03:02:44;;;;;;;14.30;8.18;;;;;;;3.60;100.00;95310.66;5100291;28;20058;-68
2022/09/25 03:05:19;;;;;;;10.25;7.10;;;;;;;3.58;100.00;95306.63;5100324;28;20139;-68
2022/09/25 03:10:35;;;;;;;16.95;8.63;;;;;;;3.42;100.00;95307.56;5082965;28;20044;-68
2022/09/25 03:13:21;;;;;;;12.35;7.45;;;;;;;3.39;100.00;95307.94;5086881;28;20302;-68
2022/09/25 03:16:01;;;;;;;16.98;8.13;;;;;;;3.31;100.00;95315.72;5081264;28;20115;-68
2022/09/25 03:18:30;;;;;;;17.65;8.20;;;;;;;3.33;100.00;95318.94;5080550;28;20101;-68
2022/09/25 03:20:57;;;;;;;14.73;8.45;;;;;;;3.35;100.00;95307.50;5100815;28;20532;-68
2022/09/25 03:23:25;;;;;;;16.17;8.70;;;;;;;3.36;100.00;95308.28;5080890;28;20044;-69
2022/09/25 03:25:53;;;;;;;13.85;8.20;;;;;;;3.24;100.00;95298.41;5100583;27;20051;-68
2022/09/25 03:28:21;;;;;;;14.73;9.40;;;;;;;3.37;100.00;95299.59;5099531;28;20071;-68
2022/09/25 03:30:57;;;;;;;14.95;8.95;;;;;;;3.46;100.00;95298.56;5101665;28;20035;-68
2022/09/25 03:33:25;;;;;;;13.95;9.25;;;;;;;3.41;100.00;95287.97;5100102;28;20060;-68
2022/09/25 03:35:59;;;;;;;15.20;9.18;;;;;;;3.52;100.00;95292.69;5081332;28;20060;-68
2022/09/25 03:38:26;;;;;;;14.82;8.65;;;;;;;3.54;100.00;95288.16;5100270;28;20130;-68
2022/09/25 03:40:53;;;;;;;17.70;9.13;;;;;;;3.58;100.00;95297.16;5100231;28;20071;-68
2022/09/25 03:43:20;;;;;;;14.98;9.60;;;;;;;3.64;100.00;95293.88;5102042;27;20051;-68
2022/09/25 03:45:46;;;;;;;17.23;9.52;;;;;;;3.63;100.00;95283.72;5081271;28;20047;-68
2022/09/25 03:48:13;;;;;;;16.60;9.63;;;;;;;3.61;100.00;95283.91;5098784;28;20036;-69
2022/09/25 03:50:40;;;;;;;15.23;8.40;;;;;;;3.68;100.00;95290.94;5081369;28;20039;-68
2022/09/25 03:53:07;;;;;;;15.40;9.75;;;;;;;3.50;100.00;95252.66;5099709;28;20036;-68
2022/09/25 03:55:34;;;;;;;15.13;9.77;;;;;;;3.67;100.00;95284.19;5102224;27;20051;-69
2022/09/25 03:58:01;;;;;;;18.02;9.90;;;;;;;3.66;100.00;95292.91;5104492;27;20126;-68
2022/09/25 04:00:28;;;;;;;16.58;10.43;;;;;;;3.62;100.00;95285.53;5105171;27;20162;-68
2022/09/25 04:02:56;;;;;;;15.82;8.63;;;;;;;3.70;100.00;95299.28;5104082;28;20602;-68
2022/09/25 04:05:23;;;;;;;17.48;10.52;;;;;;;3.60;100.00;95294.38;5104612;27;20130;-68
2022/09/25 04:07:50;;;;;;;17.95;10.20;;;;;;;3.60;100.00;95297.78;5103863;28;20154;-68
2022/09/25 04:10:17;;;;;;;15.98;9.50;;;;;;;3.48;100.00;95306.91;5086563;28;20553;-68
2022/09/25 04:12:44;;;;;;;13.98;9.60;;;;;;;3.47;100.00;95307.88;5104207;27;20488;-68
2022/09/25 04:15:10;;;;;;;20.98;10.32;;;;;;;3.53;100.00;95309.75;5104057;28;20069;-69
2022/09/25 04:17:37;;;;;;;27.45;10.75;;;;;;;3.57;100.00;95316.16;5085884;28;20130;-69
2022/09/25 04:20:04;;;;;;;15.23;9.27;;;;;;;3.56;100.00;95318.91;5103822;28;20130;-69
2022/09/25 04:22:31;;;;;;;21.60;10.43;;;;;;;3.62;100.00;95313.84;5105024;27;20537;-69
2022/09/25 04:24:57;;;;;;;16.83;10.27;;;;;;;3.57;100.00;95311.00;5104781;28;20082;-68
2022/09/25 04:27:25;;;;;;;21.50;11.30;;;;;;;3.51;100.00;95305.75;5086920;28;20039;-68
2022/09/25 04:29:52;;;;;;;15.13;10.27;;;;;;;3.49;100.00;95312.84;5104554;28;20595;-68
2022/09/25 04:35:04;;;;;;;17.25;10.13;;;;;;;3.45;100.00;95333.00;5102983;27;20684;-68
2022/09/25 04:37:31;;;;;;;15.82;10.23;;;;;;;3.38;100.00;95332.09;5085804;28;20067;-69
2022/09/25 04:39:58;;;;;;;17.02;9.23;;;;;;;3.33;100.00;95324.06;5105063;27;20051;-68
2022/09/25 04:42:25;;;;;;;16.13;9.68;;;;;;;3.29;100.00;95317.69;5103214;28;20040;-68
2022/09/25 04:44:55;;;;;;;13.93;9.10;;;;;;;3.29;100.00;95317.69;5084284;28;20063;-69
2022/09/25 04:47:23;;;;;;;14.20;8.15;;;;;;;3.33;100.00;95313.78;5102658;27;20494;-68
2022/09/25 04:49:51;;;;;;;13.32;8.80;;;;;;;3.38;100.00;95316.63;5103812;28;20470;-68
2022/09/25 04:52:19;;;;;;;16.67;9.73;;;;;;;3.43;100.00;95319.50;5101303;27;20039;-68
2022/09/25 04:54:46;;;;;;;13.02;8.13;;;;;;;3.46;100.00;95334.59;5103170;28;20056;-69
2022/09/25 04:57:18;;;;;;;14.65;8.35;;;;;;;3.43;100.00;95314.34;5102973;28;20050;-69
2022/09/25 05:00:06;;;;;;;13.85;9.05;;;;;;;3.42;100.00;95317.88;5081937;27;20035;-67
2022/09/25 05:02:33;;;;;;;14.55;8.73;;;;;;;3.49;100.00;95307.69;5081026;28;20597;-68
2022/09/25 05:05:00;;;;;;;20.25;9.30;;;;;;;3.58;100.00;95317.75;5099996;27;20092;-68
2022/09/25 05:07:27;;;;;;;17.35;9.50;;;;;;;3.64;100.00;95317.06;5100506;28;20043;-68
2022/09/25 05:09:54;;;;;;;16.45;10.23;;;;;;;3.77;100.00;95320.81;5080150;27;20048;-68
2022/09/25 05:12:21;;;;;;;15.32;10.07;;;;;;;3.87;100.00;95326.50;5098892;28;20525;-68
2022/09/25 05:14:48;;;;;;;19.98;10.57;;;;;;;3.97;100.00;95327.03;5081839;28;20105;-68
2022/09/25 05:17:14;;;;;;;19.73;12.48;;;;;;;4.14;100.00;95332.00;5100381;28;20132;-68
2022/09/25 05:19:41;;;;;;;20.48;12.52;;;;;;;4.27;100.00;95331.38;5080726;27;20596;-68
2022/09/25 05:22:08;;;;;;;20.20;11.48;;;;;;;4.35;100.00;95319.19;5101624;28;20571;-68
2022/09/25 05:24:37;;;;;;;83.82;40.15;;;;;;;4.52;100.00;95324.13;5102325;27;20039;-69
2022/09/25 05:27:04;;;;;;;62.53;30.95;;;;;;;4.69;100.00;95312.63;5082063;28;20043;-68
2022/09/25 05:29:30;;;;;;;24.58;13.65;;;;;;;4.60;100.00;95280.19;5081873;28;20036;-75
2022/09/25 05:31:58;;;;;;;17.67;11.07;;;;;;;5.01;100.00;95318.34;5068231;28;20040;-78
2022/09/25 05:34:25;;;;;;;16.40;9.95;;;;;;;5.25;100.00;95329.28;5084810;27;20126;-74
2022/09/25 05:36:52;;;;;;;14.93;10.30;;;;;;;5.38;100.00;95319.03;5103783;27;20104;-70
2022/09/25 05:39:19;;;;;;;15.07;9.93;;;;;;;5.57;100.00;95322.00;5097829;27;20521;-70
2022/09/25 05:41:45;;;;;;;14.95;10.38;;;;;;;5.72;100.00;95314.94;5099693;27;20039;-69
2022/09/25 05:44:13;;;;;;;17.70;11.07;;;;;;;5.90;100.00;95317.84;5105711;27;20093;-70
2022/09/25 05:46:41;;;;;;;19.05;12.18;;;;;;;6.18;100.00;95322.22;5102216;27;20055;-70
2022/09/25 05:49:08;;;;;;;22.27;13.98;;;;;;;6.38;100.00;95321.53;5105733;27;20058;-70
2022/09/25 05:51:34;;;;;;;38.63;21.10;;;;;;;6.53;100.00;95311.03;5083612;28;20058;-69
2022/09/25 05:54:01;;;;;;;33.25;20.17;;;;;;;6.81;100.00;95318.69;5085179;28;20047;-70
2022/09/25 05:56:28;;;;;;;22.90;14.82;;;;;;;6.94;100.00;95310.94;5101453;28;20096;-70
2022/09/25 05:58:57;;;;;;;23.00;15.65;;;;;;;7.17;100.00;95320.16;5101775;27;20166;-70
2022/09/25 06:01:24;;;;;;;22.08;13.63;;;;;;;7.36;100.00;95321.97;5100764;27;20043;-70
2022/09/25 06:03:51;;;;;;;18.85;11.23;;;;;;;7.55;100.00;95319.59;5082659;28;20556;-71
2022/09/25 06:06:19;;;;;;;21.08;11.63;;;;;;;7.67;100.00;95318.00;5099865;27;20146;-70
2022/09/25 06:08:53;;;;;;;18.77;12.15;;;;;;;7.83;100.00;95312.41;5084540;28;20456;-70
2022/09/25 06:11:21;;;;;;;16.08;11.38;;;;;;;7.99;100.00;95320.75;5102121;27;20031;-70
2022/09/25 06:13:49;;;;;;;18.33;11.32;;;;;;;8.12;100.00;95315.53;5103096;27;20507;-69
2022/09/25 06:16:20;;;;;;;23.17;12.38;;;;;;;8.32;100.00;95314.66;5080663;28;20134;-70
2022/09/25 06:18:47;;;;;;;18.48;11.85;;;;;;;8.44;100.00;95318.25;5104730;27;20044;-70
2022/09/25 06:21:14;;;;;;;18.17;12.20;;;;;;;8.60;100.00;95312.59;5102175;27;20039;-70
2022/09/25 06:23:43;;;;;;;14.38;10.55;;;;;;;8.79;100.00;95320.53;5101643;27;20051;-70
2022/09/25 06:26:11;;;;;;;16.60;10.38;;;;;;;8.94;100.00;95322.84;5103896;27;20046;-70
2022/09/25 06:28:38;;;;;;;22.83;11.10;;;;;;;9.02;100.00;95324.41;5101860;27;20039;-70
2022/09/25 06:31:05;;;;;;;18.27;11.13;;;;;;;9.20;100.00;95321.91;5102751;27;20036;-71
2022/09/25 06:33:32;;;;;;;17.40;11.07;;;;;;;9.37;100.00;95322.97;5100730;28;20126;-69
2022/09/25 06:35:59;;;;;;;14.57;10.27;;;;;;;9.49;100.00;95320.50;5102661;27;20039;-69
2022/09/25 06:38:26;;;;;;;16.17;10.95;;;;;;;9.63;100.00;95323.78;5081958;27;20446;-68
2022/09/25 06:40:53;;;;;;;16.38;10.77;;;;;;;9.76;100.00;95326.28;5101244;28;20048;-69
2022/09/25 06:43:26;;;;;;;25.33;10.93;;;;;;;9.92;100.00;95321.53;5096108;28;20043;-68
2022/09/25 06:45:52;;;;;;;16.13;11.02;;;;;;;10.09;100.00;95335.59;5098197;28;20444;-69
2022/09/25 06:48:20;;;;;;;20.65;11.10;;;;;;;10.29;100.00;95334.59;5100985;27;20965;-75
2022/09/25 06:50:51;;;;;;;19.60;10.60;;;;;;;10.32;100.00;95339.41;5079911;28;20044;-74
2022/09/25 06:53:19;;;;;;;14.38;9.32;;;;;;;10.45;100.00;95330.66;5083651;28;20070;-74
2022/09/25 06:55:48;;;;;;;13.90;8.85;;;;;;;10.58;98.31;95327.09;5084110;28;20055;-75
2022/09/25 06:58:18;;;;;;;13.20;8.43;;;;;;;10.66;97.15;95329.41;5080306;27;20712;-75
2022/09/25 07:00:49;;;;;;;13.18;8.40;;;;;;;10.84;95.82;95332.00;5080596;28;20055;-75
2022/09/25 07:06:04;;;;;;;12.60;8.27;;;;;;;11.42;95.82;95327.22;5091916;27;20040;-75
2022/09/25 07:08:31;;;;;;;13.02;9.00;;;;;;;11.60;93.62;95308.06;5075690;27;20489;-74
2022/09/25 07:10:58;;;;;;;14.50;8.23;;;;;;;11.84;91.18;95316.72;5108959;28;20175;-73
2022/09/25 07:13:28;;;;;;;12.63;7.63;;;;;;;11.98;89.06;95319.94;5104305;27;20050;-75
2022/09/25 07:15:57;;;;;;;15.38;7.78;;;;;;;12.13;89.41;95338.53;5108674;27;20116;-75
2022/09/25 07:18:25;;;;;;;12.30;7.50;;;;;;;12.32;88.87;95343.66;5102990;28;20047;-75
2022/09/25 07:20:57;;;;;;;13.80;8.10;;;;;;;12.50;87.54;95342.72;5101295;27;20073;-75
2022/09/25 07:23:24;;;;;;;11.07;7.60;;;;;;;12.66;86.23;95347.22;5081627;28;20048;-74
2022/09/25 07:25:51;;;;;;;14.07;6.93;;;;;;;12.80;85.16;95348.56;5087610;28;20271;-75
2022/09/25 07:28:18;;;;;;;10.05;6.85;;;;;;;12.96;85.65;95340.97;5081830;28;20044;-75
2022/09/25 07:30:47;;;;;;;13.48;7.22;;;;;;;13.19;83.28;95348.72;5105396;27;20066;-75
2022/09/25 07:33:15;;;;;;;9.70;6.63;;;;;;;13.34;82.82;95340.41;5103749;27;20048;-73
2022/09/25 07:35:42;;;;;;;11.95;6.47;;;;;;;13.32;80.49;95347.69;5081322;28;20612;-69
2022/09/25 07:38:09;;;;;;;11.98;7.28;;;;;;;13.49;80.92;95349.56;5097873;28;20049;-69
2022/09/25 07:40:35;;;;;;;9.38;6.57;;;;;;;13.55;79.69;95333.69;5083873;28;20035;-73
2022/09/25 07:43:06;;;;;;;8.93;6.20;;;;;;;13.71;78.36;95347.03;5088305;28;20113;-73
2022/09/25 07:45:32;;;;;;;12.25;6.10;;;;;;;13.87;78.72;95346.22;5098869;28;20556;-72
2022/09/25 07:48:01;;;;;;;14.35;5.53;;;;;;;14.09;77.47;95337.66;5103407;28;20040;-72
2022/09/25 07:50:30;;;;;;;10.05;5.93;;;;;;;14.20;76.29;95343.81;5085379;28;20040;-70
2022/09/25 07:52:57;;;;;;;9.48;5.68;;;;;;;14.33;75.49;95336.44;5097119;28;20039;-70
2022/09/25 07:55:27;;;;;;;7.78;5.38;;;;;;;14.48;75.01;95324.56;5094277;28;20290;-73
2022/09/25 07:57:57;;;;;;;11.52;7.38;;;;;;;14.42;74.23;95304.53;5080650;28;20204;-72
2022/09/25 08:00:24;;;;;;;9.02;5.95;;;;;;;14.52;72.66;95294.19;5080043;28;20052;-72
2022/09/25 08:02:56;;;;;;;9.35;6.50;;;;;;;14.71;72.22;95303.38;5082967;28;20135;-73
2022/09/25 08:05:23;;;;;;;9.85;6.07;;;;;;;15.06;72.60;95298.75;5080949;28;20049;-73
2022/09/25 08:07:52;;;;;;;11.55;6.55;;;;;;;15.30;68.46;95299.22;5082532;28;20060;-72
2022/09/25 08:10:19;;;;;;;10.52;5.88;;;;;;;15.64;62.91;95299.00;5099751;28;20108;-73
2022/09/25 08:12:46;;;;;;;13.95;6.00;;;;;;;15.80;60.08;95292.06;5096350;28;20397;-73
2022/09/25 08:15:13;;;;;;;11.43;5.10;;;;;;;16.07;58.68;95297.22;5100210;28;20101;-72
2022/09/25 08:17:41;;;;;;;7.32;4.60;;;;;;;16.22;55.42;95297.31;5079830;28;20043;-72
2022/09/25 08:20:09;;;;;;;10.15;6.03;;;;;;;16.37;54.82;95295.81;5094213;28;20047;-73
2022/09/25 08:22:36;;;;;;;6.05;4.40;;;;;;;16.31;54.06;95281.06;5080106;28;20040;-73
2022/09/25 08:25:03;;;;;;;7.53;4.85;;;;;;;16.48;53.91;95301.91;5097713;28;20382;-70
2022/09/25 08:27:30;;;;;;;7.45;4.88;;;;;;;16.56;51.67;95296.94;5098769;28;20517;-70
2022/09/25 08:29:58;;;;;;;9.88;6.25;;;;;;;16.72;51.88;95297.00;5099133;28;20516;-70
2022/09/25 08:32:25;;;;;;;6.15;4.45;;;;;;;16.81;49.80;95290.19;5101318;28;20106;-70
2022/09/25 08:34:54;;;;;;;4.40;3.45;;;;;;;17.08;48.94;95283.97;5100340;28;20138;-70
2022/09/25 08:37:20;;;;;;;8.45;4.63;;;;;;;17.20;48.35;95279.25;5100411;28;20062;-69
2022/09/25 08:39:47;;;;;;;6.82;4.38;;;;;;;17.45;49.36;95261.88;5101723;28;20112;-69
2022/09/25 08:42:19;;;;;;;6.53;4.10;;;;;;;17.81;46.79;95253.97;5082581;28;20135;-69
2022/09/25 08:49:00;;;;;;;5.90;4.00;;;;;;;18.03;46.70;95262.41;5105610;27;20086;-69
2022/09/25 08:50:37;;;;;;;5.05;3.10;;;;;;;18.54;43.58;95278.03;5100634;27;20075;-69
2022/09/25 08:53:22;;;;;;;7.68;3.97;;;;;;;18.78;43.43;95258.16;5083321;28;20062;-69
2022/09/25 08:58:42;;;;;;;6.10;3.33;;;;;;;19.19;41.47;95265.88;5101954;28;20036;-70
2022/09/25 09:01:17;;;;;;;5.57;3.58;;;;;;;19.36;41.32;95257.59;5098783;27;20042;-70
2022/09/25 09:04:04;;;;;;;4.93;3.47;;;;;;;19.60;40.14;95255.78;5100778;27;20131;-75
2022/09/25 09:06:33;;;;;;;7.20;3.50;;;;;;;19.66;39.57;95254.69;5085269;28;20138;-74
2022/09/25 09:09:26;;;;;;;3.40;2.88;;;;;;;19.81;40.01;95255.66;5082186;28;20050;-73
2022/09/25 09:12:18;;;;;;;7.28;3.58;;;;;;;19.77;40.49;95254.59;5095091;27;20071;-73
2022/09/25 09:14:49;;;;;;;4.40;3.30;;;;;;;19.87;39.24;95243.94;5085105;28;20130;-74
2022/09/25 09:17:22;;;;;;;5.10;2.63;;;;;;;19.71;38.94;95250.41;5083255;28;20052;-75
2022/09/25 09:19:58;;;;;;;3.80;2.80;;;;;;;19.88;37.86;95245.53;5102113;28;20043;-75
2022/09/25 09:22:36;;;;;;;6.53;3.20;;;;;;;20.07;37.35;95236.88;5102165;28;20047;-74
2022/09/25 09:25:18;;;;;;;6.82;3.38;;;;;;;20.42;37.14;95236.47;5082513;28;20036;-74
2022/09/25 09:27:48;;;;;;;6.38;3.13;;;;;;;20.77;37.67;95234.47;5081346;28;20105;-73
2022/09/25 09:30:20;;;;;;;6.70;3.65;;;;;;;21.04;36.61;95232.28;5082366;27;20109;-74
2022/09/25 09:33:16;;;;;;;6.38;2.88;;;;;;;20.99;34.97;95220.69;5085942;28;20059;-74
2022/09/25 09:36:11;;;;;;;10.45;3.72;;;;;;;20.69;35.35;95226.38;5103813;28;20595;-75
2022/09/25 09:39:17;;;;;;;4.93;2.80;;;;;;;20.79;35.71;95227.03;5101159;27;20464;-73
2022/09/25 09:42:08;;;;;;;3.03;2.33;;;;;;;20.35;35.25;95206.16;5046991;28;20547;-76
2022/09/25 09:45:07;;;;;;;6.22;3.17;;;;;;;20.67;35.21;95224.03;5106235;27;20512;-74
2022/09/25 09:47:47;;;;;;;4.43;3.10;;;;;;;20.57;35.79;95198.44;5116000;27;20059;-74
2022/09/25 09:50:29;;;;;;;10.15;3.40;;;;;;;20.89;35.42;95220.81;5101425;27;20104;-74
2022/09/25 09:53:02;;;;;;;6.45;3.45;;;;;;;20.99;35.16;95214.59;5105742;27;20028;-75
2022/09/25 09:55:45;;;;;;;5.43;3.72;;;;;;;20.93;33.81;95223.69;5086723;28;20040;-73
2022/09/25 09:58:40;;;;;;;8.30;3.20;;;;;;;21.37;34.75;95211.88;5082025;28;20048;-74
2022/09/25 10:01:09;;;;;;;4.93;3.13;;;;;;;21.80;33.22;95216.25;5102415;27;20120;-74
2022/09/25 10:04:21;;;;;;;4.53;2.83;;;;;;;22.05;32.60;95201.72;5103201;27;20086;-74
2022/09/25 10:07:03;;;;;;;5.28;2.60;;;;;;;22.13;32.30;95206.34;5084797;28;20044;-74
2022/09/25 10:09:31;;;;;;;4.30;3.15;;;;;;;22.65;33.51;95209.59;5082188;28;20047;-74
2022/09/25 10:12:16;;;;;;;3.60;2.80;;;;;;;23.17;32.71;95203.16;5084398;27;20047;-74
2022/09/25 10:14:46;;;;;;;4.68;3.28;;;;;;;22.84;30.96;95206.75;5103019;27;20114;-74
2022/09/25 10:17:14;;;;;;;3.15;2.33;;;;;;;22.39;30.82;95200.56;5085387;28;20151;-74
2022/09/25 10:19:50;;;;;;;3.95;3.00;;;;;;;22.18;31.42;95200.94;5103383;27;20516;-74
2022/09/25 10:22:20;;;;;;;3.20;2.67;;;;;;;22.27;31.67;95193.91;5082041;28;20047;-74
2022/09/25 10:25:00;;;;;;;14.32;3.45;;;;;;;22.54;31.53;95181.66;5082779;28;20050;-74
2022/09/25 10:27:35;;;;;;;6.93;3.10;;;;;;;22.85;31.20;95187.09;5088609;28;20095;-74
2022/09/25 10:30:08;;;;;;;4.60;3.05;;;;;;;23.08;29.78;95190.59;5087812;27;20058;-74
2022/09/25 10:32:43;;;;;;;3.17;2.70;;;;;;;23.03;29.64;95182.72;5100316;28;20036;-69
2022/09/25 10:35:23;;;;;;;4.72;2.72;;;;;;;22.87;29.85;95179.63;5097103;27;20085;-69
2022/09/25 10:37:54;;;;;;;4.55;2.17;;;;;;;23.43;29.72;95177.53;5100139;27;20562;-70
2022/09/25 10:40:24;;;;;;;3.47;2.35;;;;;;;23.89;29.00;95175.59;5098756;27;20115;-70
2022/09/25 10:43:13;;;;;;;18.63;8.00;;;;;;;24.30;28.75;95163.03;5101408;28;20077;-70
2022/09/25 10:45:40;;;;;;;2.88;2.25;;;;;;;24.54;28.04;95171.44;5081942;28;20124;-70
2022/09/25 10:51:31;;;;;;;3.53;2.90;;;;;;;23.93;27.79;95165.13;5015801;28;20513;-70
2022/09/25 10:54:12;;;;;;;3.63;2.60;;;;;;;23.74;28.17;95163.44;5014354;28;20271;-74
2022/09/25 10:56:40;;;;;;;7.80;2.85;;;;;;;23.86;29.02;95160.25;5072853;27;20150;-70
2022/09/25 10:59:22;;;;;;;4.75;2.63;;;;;;;24.17;28.64;95160.19;5078458;27;20058;-71
2022/09/25 11:01:51;;;;;;;3.75;2.30;;;;;;;24.65;27.94;95160.44;5091182;27;20043;-72
2022/09/25 11:04:30;;;;;;;6.97;2.80;;;;;;;24.87;27.44;95167.53;5096098;27;20050;-72
2022/09/25 11:07:03;;;;;;;3.97;2.72;;;;;;;24.83;27.99;95151.38;5103094;27;20108;-72
2022/09/25 11:09:32;;;;;;;6.10;2.70;;;;;;;25.37;27.06;95154.50;5103035;27;20055;-71
2022/09/25 11:12:12;;;;;;;4.05;2.72;;;;;;;25.71;26.83;95149.34;5085522;28;20051;-72
2022/09/25 11:14:54;;;;;;;3.17;1.98;;;;;;;25.89;25.48;95160.75;5081500;27;20047;-75
2022/09/25 11:17:36;;;;;;;3.03;2.42;;;;;;;26.02;25.63;95151.78;5097193;27;20502;-77
2022/09/25 11:20:15;;;;;;;2.78;2.33;;;;;;;26.22;25.40;95152.16;5119712;27;20043;-77
2022/09/25 11:22:58;;;;;;;3.13;2.42;;;;;;;26.50;24.46;95139.84;5091136;28;20964;-76
2022/09/25 11:25:47;;;;;;;3.17;2.40;;;;;;;27.00;24.40;95148.16;5088766;28;20112;-76
2022/09/25 11:28:36;;;;;;;5.18;2.20;;;;;;;27.32;23.85;95148.53;5116650;27;20047;-76
2022/09/25 11:31:28;;;;;;;3.03;2.25;;;;;;;27.64;24.22;95122.81;5102568;27;20836;-70
2022/09/25 11:34:08;;;;;;;5.53;2.00;;;;;;;28.06;23.00;95136.03;5103648;27;20111;-69
2022/09/25 11:37:01;;;;;;;5.40;2.28;;;;;;;28.28;22.87;95150.88;5101906;27;20584;-68
2022/09/25 11:42:42;;;;;;;4.60;2.65;;;;;;;26.69;23.73;95154.69;5108020;27;20127;-69
2022/09/25 11:45:35;;;;;;;3.35;2.70;;;;;;;26.81;23.11;95146.75;5105267;28;20316;-68
2022/09/25 11:48:19;;;;;;;2.35;2.08;;;;;;;26.72;23.83;95148.69;5105734;28;20086;-69
2022/09/25 11:51:09;;;;;;;3.40;1.90;;;;;;;27.88;22.65;95138.13;5107242;28;20046;-69
2022/09/25 11:53:42;;;;;;;3.60;2.28;;;;;;;28.47;21.76;95136.09;5070465;28;20066;-68
2022/09/25 11:56:24;;;;;;;2.95;2.20;;;;;;;28.74;20.88;95129.28;5106688;28;20146;-67
2022/09/25 11:59:03;;;;;;;4.60;1.70;;;;;;;29.05;21.10;95107.13;5092579;27;20648;-67
2022/09/25 12:01:51;;;;;;;3.42;1.88;;;;;;;29.49;20.20;95131.28;5103623;28;21630;-68
2022/09/25 12:04:54;;;;;;;2.78;1.88;;;;;;;30.02;20.12;95132.97;5082325;28;20588;-68
2022/09/25 12:07:40;;;;;;;2.03;1.30;;;;;;;30.34;19.10;95130.25;5096640;28;20040;-68
2022/09/25 12:10:19;;;;;;;5.07;2.83;;;;;;;30.76;19.54;95129.63;5090066;28;20687;-68
2022/09/25 12:13:00;;;;;;;3.60;1.58;;;;;;;31.23;18.65;95125.94;5107795;28;20056;-68
2022/09/25 12:15:45;;;;;;;3.30;2.30;;;;;;;31.42;18.88;95122.41;5106917;27;20032;-68
2022/09/25 12:18:39;;;;;;;4.05;1.88;;;;;;;31.83;18.22;95111.97;5106969;27;20036;-68
2022/09/25 12:21:08;;;;;;;2.38;1.73;;;;;;;31.94;17.22;95114.81;5106636;27;20104;-68